Airfield :
LOGIN :

Register | Disclaimer

   EN    FR    IT 

 










Legend :    VFR   Marginal VFR   IFR   Intensive IFR   Very Intensive IFR
Visi :
Ceiling :
>= 8 km
>= 3000ft
5 to 8 km
1000 to 3000 ft
1500m to 5 km
500 to 1000 ft
800 to 1500m
200 to 500 ft
< 800m
< 200 ft
Symbols :   Thunderstorms  Fog  Heavy snow  Heavy precipitations  Wind > 20 kt
SIGMETs :     Misc.  Thunderstorms  Icing  Turbulence  Mountain Waves  Volcanic Ashes







- Airport Elevation : 14 ft
- IATA code : BRE


EDDW - Bremen Neuenland

CURRENT METAR :
  • 190150Z 04003KT CAVOK 07/06 Q1026

EXPIRED METARs :
  • 190120Z 04003KT 360V070 CAVOK 07/06 Q1026
  • 190050Z 06003KT 040V100 9999 FEW032 06/06 Q1026
  • 190020Z 05005KT 020V080 9999 BKN032 07/06 Q1026
  • 182350Z 05004KT 030V090 9999 BKN031 08/06 Q1026
  • 182320Z 03007KT 9999 BKN033 08/07 Q1026

TAF TAF EDDW
Valid from the 19 at 00:00 until the 20 at 00:00 UTC


182300Z 1900/1924 04005KT 9999 SCT035
TEMPO 1903/1907 3000 BCFG
PROB30
TEMPO 1903/1907 0600 FG
BECMG 1921/1923 33002KT
No reported NOTAMs for that airfield.



MET'MAP, your aeronautical weather chart ! - Copyright ORBIFLY December 2007 - Disclaimer

ORBIFLY MET'MAP TEAM :

Programming & Development : Alexandra Zaïnal
Concept & Development : Baudouin d'Aumeries
Co-Development & Prog : Marc-Olivier Méhu
Technical & hardware support : Manuel Goepfert

Contact : metmap@orbifly.com




SOURCES & CREDITS :

   NOAA